createdAt,value
2022-12-17T00:03:23.046Z,2900.43343
2022-12-17T00:18:25.076Z,2878.62566
2022-12-17T00:33:26.991Z,2751.54056
2022-12-17T00:48:28.940Z,2791.66719
2022-12-17T01:03:30.860Z,2748.71847
2022-12-17T01:18:32.758Z,2729.12476
2022-12-17T01:33:34.934Z,2674.65122
2022-12-17T01:48:37.127Z,2653.46587
2022-12-17T02:03:39.296Z,2609.54287
2022-12-17T02:18:41.354Z,2552.38147
2022-12-17T02:33:43.280Z,2635.20209
2022-12-17T02:48:45.204Z,2545.10973
2022-12-17T03:03:50.231Z,2648.22186
2022-12-17T03:18:52.560Z,2576.92359
2022-12-17T03:33:58.302Z,2596.89974
2022-12-17T03:49:00.184Z,2666.66719
2022-12-17T04:04:02.059Z,2791.66719
2022-12-17T04:19:03.931Z,2671.98457
2022-12-17T04:34:05.891Z,2579.40379
2022-12-17T04:49:07.804Z,2554.81462
2022-12-17T05:04:09.708Z,2537.8793
2022-12-17T05:19:11.581Z,2483.78179
2022-12-17T05:34:13.507Z,2507.01642
2022-12-17T05:49:15.413Z,2486.08586
2022-12-17T06:04:17.389Z,2443.02695
2022-12-17T06:19:19.340Z,2762.88712
2022-12-17T06:34:21.237Z,2800.4185
2022-12-17T06:49:23.139Z,2470.0466
2022-12-17T07:04:25.014Z,2429.73759
2022-12-17T07:19:27.501Z,2175.32518
2022-12-17T07:34:29.708Z,2220.38162
2022-12-17T07:49:31.624Z,2310.34534
2022-12-17T08:04:33.507Z,2330.43529
2022-12-17T08:19:35.405Z,2233.33384
2022-12-17T08:34:37.330Z,1530.55446
2022-12-17T08:49:39.234Z,994.80377
2022-12-17T09:04:41.209Z,768.34912
2022-12-17T09:19:43.095Z,747.02134
2022-12-17T09:34:44.983Z,1367.34745
2022-12-17T09:49:46.866Z,1536.69774
2022-12-17T10:04:48.791Z,1503.08518
2022-12-17T10:19:50.689Z,1492.20542
2022-12-17T10:34:52.503Z,1798.65821
2022-12-17T10:49:54.413Z,1542.89053
2022-12-17T11:04:56.289Z,1985.18568
2022-12-17T11:19:58.234Z,2154.34134
2022-12-17T11:35:00.121Z,2288.64269
2022-12-17T11:50:02.046Z,2388.59231
2022-12-17T12:05:04.005Z,2449.72629
2022-12-17T12:20:05.916Z,2530.68984
2022-12-17T12:35:07.771Z,2507.01642
2022-12-17T12:50:09.712Z,2574.44816
2022-12-17T13:05:11.611Z,2581.88876
2022-12-17T13:20:13.508Z,2607.00441
2022-12-17T13:35:15.391Z,2674.65122
2022-12-17T13:50:34.676Z,2768.59557
2022-12-17T14:05:37.398Z,2878.62566
2022-12-17T14:20:39.300Z,2932.16683
2022-12-17T14:35:41.185Z,2935.37841
2022-12-17T14:50:43.092Z,3035.10807
2022-12-17T15:05:44.984Z,3009.54568
2022-12-17T15:20:46.937Z,3047.18638
2022-12-17T15:35:48.847Z,3076.92356
2022-12-17T15:50:50.766Z,3069.87448
2022-12-17T16:05:52.707Z,3149.23668
2022-12-17T16:20:54.674Z,3116.27955
2022-12-17T16:35:56.564Z,3107.24686
2022-12-17T16:50:58.488Z,3156.65537
2022-12-17T17:06:00.382Z,3094.68871
2022-12-17T17:21:02.342Z,3101.85234
2022-12-17T17:36:04.322Z,3091.11928
2022-12-17T17:51:06.246Z,2991.07191
2022-12-17T18:06:08.137Z,2994.41389
2022-12-17T18:21:10.059Z,2894.169
2022-12-17T18:36:11.964Z,2922.57414
2022-12-17T18:51:13.849Z,2803.34781
2022-12-17T19:06:15.759Z,2809.22484
2022-12-17T19:21:17.666Z,2342.65785
2022-12-17T19:36:22.571Z,2185.97114
2022-12-17T19:51:27.066Z,1950.50996
2022-12-17T20:06:28.947Z,1903.40959
2022-12-17T20:21:30.845Z,1750.49037
2022-12-17T20:36:32.778Z,1501.40105
2022-12-17T20:51:34.775Z,1472.52799
2022-12-17T21:06:36.663Z,1539.3457
2022-12-17T21:21:38.562Z,1517.55429
2022-12-17T21:36:40.503Z,1518.41409
2022-12-17T21:51:42.389Z,1666.66716
2022-12-17T22:06:46.606Z,1689.78612
2022-12-17T22:21:57.882Z,1874.12637
2022-12-17T22:39:53.828Z,2050.49782
2022-12-17T22:59:34.782Z,2058.37224
2022-12-17T23:14:36.601Z,1979.32103
2022-12-17T23:29:38.413Z,1973.49093
2022-12-17T23:44:40.234Z,1989.60703
2022-12-17T23:59:42.042Z,2088.85475
